createdAt,value
2023-03-29T00:02:04.708Z,0.60
2023-03-29T00:04:31.651Z,0.50
2023-03-29T00:07:03.944Z,0.40
2023-03-29T00:09:32.970Z,0.40
2023-03-29T00:12:01.418Z,0.40
2023-03-29T00:14:30.492Z,0.50
2023-03-29T00:16:58.344Z,0.50
2023-03-29T00:19:25.211Z,0.50
2023-03-29T00:21:51.992Z,0.60
2023-03-29T00:24:18.805Z,0.40
2023-03-29T00:26:45.564Z,0.50
2023-03-29T00:29:12.372Z,0.40
2023-03-29T00:31:39.176Z,0.40
2023-03-29T00:34:06.004Z,0.50
2023-03-29T00:36:32.849Z,0.60
2023-03-29T00:38:59.574Z,0.70
2023-03-29T00:41:26.349Z,0.80
2023-03-29T00:43:57.837Z,0.80
2023-03-29T00:46:26.550Z,0.80
2023-03-29T00:48:57.796Z,0.80
2023-03-29T00:51:28.015Z,0.80
2023-03-29T00:53:59.007Z,0.80
2023-03-29T00:56:33.314Z,0.70
2023-03-29T00:59:07.086Z,0.70
2023-03-29T01:01:42.283Z,0.60
2023-03-29T01:04:19.335Z,0.60
2023-03-29T01:07:24.197Z,0.60
2023-03-29T01:09:55.387Z,0.60
2023-03-29T01:12:32.727Z,0.70
2023-03-29T01:15:12.476Z,0.70
2023-03-29T01:17:40.630Z,0.60
2023-03-29T01:20:17.209Z,0.70
2023-03-29T01:23:13.907Z,0.70
2023-03-29T01:26:09.918Z,0.80
2023-03-29T01:28:53.533Z,0.80
2023-03-29T01:31:22.921Z,0.90
2023-03-29T01:33:58.726Z,0.80
2023-03-29T01:36:37.155Z,0.80
2023-03-29T01:39:06.380Z,0.90
2023-03-29T01:41:56.001Z,1.00
2023-03-29T01:44:34.599Z,1.10
2023-03-29T01:47:30.864Z,1.10
2023-03-29T01:50:06.393Z,1.20
2023-03-29T01:52:40.723Z,1.30
2023-03-29T01:55:18.393Z,1.30
2023-03-29T01:57:47.722Z,1.30
2023-03-29T02:00:19.219Z,1.40
2023-03-29T02:02:47.453Z,1.50
2023-03-29T02:05:16.425Z,1.50
2023-03-29T02:07:45.965Z,1.40
2023-03-29T02:10:14.440Z,1.40
2023-03-29T02:12:42.986Z,1.30
2023-03-29T02:15:13.208Z,1.30
2023-03-29T02:17:40.192Z,1.30
2023-03-29T02:20:14.706Z,1.30
2023-03-29T02:23:04.653Z,1.30
2023-03-29T02:25:32.549Z,1.20
2023-03-29T02:27:59.950Z,1.20
2023-03-29T02:30:33.226Z,1.20
2023-03-29T02:33:06.259Z,1.20
2023-03-29T02:35:36.662Z,1.30
2023-03-29T02:38:08.880Z,1.30
2023-03-29T02:40:38.885Z,1.30
2023-03-29T02:43:07.826Z,1.30
2023-03-29T02:45:37.048Z,1.40
2023-03-29T02:48:07.861Z,1.30
2023-03-29T02:50:39.257Z,1.30
2023-03-29T02:53:17.611Z,1.40
2023-03-29T02:55:46.107Z,1.40
2023-03-29T02:58:15.273Z,1.40
2023-03-29T03:00:45.954Z,1.30
2023-03-29T03:03:15.267Z,1.30
2023-03-29T03:05:42.340Z,1.30
2023-03-29T03:08:09.425Z,1.30
2023-03-29T03:10:37.089Z,1.30
2023-03-29T03:13:04.017Z,1.30
2023-03-29T03:15:31.209Z,1.40
2023-03-29T03:17:58.003Z,1.40
2023-03-29T03:20:24.927Z,1.40
2023-03-29T03:22:51.702Z,1.40
2023-03-29T03:25:20.995Z,1.40
2023-03-29T03:27:49.073Z,1.30
2023-03-29T03:30:16.796Z,1.50
2023-03-29T03:32:44.757Z,1.60
2023-03-29T03:35:11.986Z,1.70
2023-03-29T03:37:40.065Z,1.80
2023-03-29T03:40:11.391Z,1.90
2023-03-29T03:42:39.299Z,1.90
2023-03-29T03:45:08.185Z,2.00
2023-03-29T03:47:37.384Z,2.00
2023-03-29T03:50:05.714Z,2.00
2023-03-29T03:52:32.441Z,2.10
2023-03-29T03:54:59.493Z,2.10
2023-03-29T03:57:27.509Z,2.10
2023-03-29T03:59:54.221Z,2.10
2023-03-29T04:02:22.041Z,2.00
2023-03-29T04:04:49.120Z,2.00
2023-03-29T04:07:17.807Z,2.00
2023-03-29T04:09:45.080Z,2.00
2023-03-29T04:12:12.072Z,2.00
2023-03-29T04:14:38.910Z,2.10
2023-03-29T04:17:05.798Z,2.10
2023-03-29T04:19:32.748Z,2.10
2023-03-29T04:21:59.543Z,2.10
2023-03-29T04:24:26.521Z,2.10
2023-03-29T04:26:53.304Z,2.10
2023-03-29T04:29:20.055Z,2.20
2023-03-29T04:31:46.872Z,2.20
2023-03-29T04:34:13.713Z,2.30
2023-03-29T04:36:40.470Z,2.30
2023-03-29T04:39:07.755Z,2.30
2023-03-29T04:41:35.056Z,2.30
2023-03-29T04:44:02.630Z,2.40
2023-03-29T04:46:30.404Z,2.30
2023-03-29T04:48:57.778Z,2.20
2023-03-29T04:51:24.516Z,2.10
2023-03-29T04:53:51.456Z,2.10
2023-03-29T04:56:18.314Z,2.10
2023-03-29T04:58:45.218Z,2.20
2023-03-29T05:01:12.031Z,2.30
2023-03-29T05:03:38.884Z,2.20
2023-03-29T05:06:08.736Z,2.20
2023-03-29T05:08:39.121Z,2.10
2023-03-29T05:11:08.039Z,2.20
2023-03-29T05:13:35.372Z,2.30
2023-03-29T05:16:04.296Z,2.30
2023-03-29T05:18:31.786Z,2.40
2023-03-29T05:21:00.230Z,2.40
2023-03-29T05:23:27.377Z,2.40
2023-03-29T05:25:54.729Z,2.40
2023-03-29T05:28:21.660Z,2.40
2023-03-29T05:31:00.014Z,2.50
2023-03-29T05:33:28.170Z,2.50
2023-03-29T05:36:01.893Z,2.50
2023-03-29T05:38:30.071Z,2.50
2023-03-29T05:40:57.534Z,2.40
2023-03-29T05:43:24.573Z,2.30
2023-03-29T05:45:56.247Z,2.40
2023-03-29T05:48:23.821Z,2.50
2023-03-29T05:50:53.388Z,2.60
2023-03-29T05:53:23.086Z,2.70
2023-03-29T05:55:51.620Z,2.80
2023-03-29T05:58:20.174Z,2.90
2023-03-29T06:00:51.285Z,2.90
2023-03-29T06:03:21.978Z,2.80
2023-03-29T06:05:56.234Z,2.80
2023-03-29T06:08:23.347Z,2.80
2023-03-29T06:10:50.160Z,2.80
2023-03-29T06:13:17.491Z,3.00
2023-03-29T06:15:45.087Z,3.10
2023-03-29T06:18:12.533Z,3.10
2023-03-29T06:20:39.405Z,3.20
2023-03-29T06:23:06.354Z,3.30
2023-03-29T06:25:34.106Z,3.30
2023-03-29T06:28:01.161Z,3.40
2023-03-29T06:30:28.548Z,3.40
2023-03-29T06:32:55.603Z,3.50
2023-03-29T06:35:22.484Z,3.70
2023-03-29T06:37:53.682Z,3.80
2023-03-29T06:40:24.648Z,3.90
2023-03-29T06:42:57.673Z,3.90
2023-03-29T06:45:27.495Z,3.80
2023-03-29T06:47:56.583Z,3.90
2023-03-29T06:50:23.804Z,3.90
2023-03-29T06:52:50.613Z,4.00
2023-03-29T06:55:18.460Z,4.10
2023-03-29T06:57:45.410Z,4.20
2023-03-29T07:00:19.186Z,4.20
2023-03-29T07:02:46.505Z,4.30
2023-03-29T07:05:14.361Z,4.40
2023-03-29T07:07:54.971Z,4.50
2023-03-29T07:10:25.067Z,4.60
2023-03-29T07:12:52.908Z,4.60
2023-03-29T07:15:21.431Z,4.70
2023-03-29T07:17:49.052Z,4.80
2023-03-29T07:20:16.596Z,4.80
2023-03-29T07:22:44.499Z,4.90
2023-03-29T07:25:12.305Z,5.00
2023-03-29T07:27:41.772Z,4.90
2023-03-29T07:30:11.228Z,5.10
2023-03-29T07:32:40.074Z,5.10
2023-03-29T07:35:08.510Z,5.10
2023-03-29T07:37:37.432Z,5.30
2023-03-29T07:40:10.974Z,5.30
2023-03-29T07:42:38.343Z,5.30
2023-03-29T07:45:07.124Z,5.30
2023-03-29T07:47:34.964Z,5.20
2023-03-29T07:50:02.578Z,5.20
2023-03-29T07:52:30.212Z,5.20
2023-03-29T07:54:57.432Z,4.90
2023-03-29T07:57:26.572Z,4.80
2023-03-29T07:59:54.376Z,4.80
2023-03-29T08:02:21.413Z,4.90
2023-03-29T08:04:48.278Z,5.00
2023-03-29T08:07:18.474Z,5.00
2023-03-29T08:09:46.100Z,5.10
2023-03-29T08:12:13.184Z,5.10
2023-03-29T08:14:40.167Z,5.20
2023-03-29T08:17:07.023Z,5.20
2023-03-29T08:19:33.959Z,5.30
2023-03-29T08:22:00.745Z,5.30
2023-03-29T08:24:27.632Z,5.40
2023-03-29T08:26:55.065Z,5.20
2023-03-29T08:29:22.357Z,5.30
2023-03-29T08:31:49.286Z,5.30
2023-03-29T08:34:16.203Z,5.50
2023-03-29T08:36:43.008Z,5.60
2023-03-29T08:39:09.959Z,5.60
2023-03-29T08:41:53.496Z,5.60
2023-03-29T08:44:56.801Z,5.60
2023-03-29T08:47:48.283Z,5.70
2023-03-29T08:50:15.776Z,5.80
2023-03-29T08:52:51.646Z,5.80
2023-03-29T08:55:37.389Z,5.60
2023-03-29T08:58:08.179Z,5.70
2023-03-29T09:00:38.736Z,5.60
2023-03-29T09:03:34.290Z,5.80
2023-03-29T09:06:07.142Z,5.80
2023-03-29T09:08:56.552Z,6.00
2023-03-29T09:11:45.892Z,6.10
2023-03-29T09:14:38.932Z,6.30
2023-03-29T09:17:08.865Z,6.30
2023-03-29T09:19:53.547Z,6.10
2023-03-29T09:22:37.894Z,6.10
2023-03-29T09:25:21.411Z,6.00
2023-03-29T09:27:59.014Z,6.00
2023-03-29T09:30:39.659Z,6.10
2023-03-29T09:33:34.640Z,6.30
2023-03-29T09:36:10.228Z,6.40
2023-03-29T09:38:42.585Z,6.50
2023-03-29T09:41:26.956Z,6.60
2023-03-29T09:43:56.896Z,6.50
2023-03-29T09:46:30.824Z,6.70
2023-03-29T09:48:57.788Z,7.10
2023-03-29T09:51:27.982Z,7.40
2023-03-29T09:54:00.129Z,6.90
2023-03-29T09:56:28.674Z,7.10
2023-03-29T09:58:55.684Z,7.20
2023-03-29T10:01:22.518Z,7.40
2023-03-29T10:03:52.297Z,7.50
2023-03-29T10:06:21.304Z,7.70
2023-03-29T10:08:52.736Z,7.90
2023-03-29T10:11:29.642Z,8.10
2023-03-29T10:14:01.960Z,8.00
2023-03-29T10:16:46.105Z,8.10
2023-03-29T10:19:32.933Z,8.40
2023-03-29T10:22:04.707Z,8.40
2023-03-29T10:24:31.613Z,8.40
2023-03-29T10:27:01.660Z,8.30
2023-03-29T10:29:36.823Z,8.60
2023-03-29T10:32:22.952Z,8.90
2023-03-29T10:34:51.904Z,8.60
2023-03-29T10:37:20.149Z,8.40
2023-03-29T10:39:48.584Z,8.40
2023-03-29T10:42:19.172Z,8.50
2023-03-29T10:44:59.974Z,8.60
2023-03-29T10:47:34.236Z,8.80
2023-03-29T10:50:01.763Z,9.10
2023-03-29T10:52:30.046Z,9.10
2023-03-29T10:54:56.922Z,9.20
2023-03-29T10:57:30.911Z,9.40
2023-03-29T11:00:18.501Z,10.10
2023-03-29T11:03:04.194Z,10.00
2023-03-29T11:05:44.093Z,9.50
2023-03-29T11:08:34.097Z,9.90
2023-03-29T11:11:21.798Z,10.70
2023-03-29T11:14:00.109Z,10.20
2023-03-29T11:17:00.372Z,10.80
2023-03-29T11:19:56.520Z,11.00
2023-03-29T11:22:55.939Z,10.60
2023-03-29T11:25:59.308Z,10.30
2023-03-29T11:28:40.563Z,10.50
2023-03-29T11:31:32.810Z,10.30
2023-03-29T11:34:24.224Z,10.00
2023-03-29T11:36:57.148Z,10.10
2023-03-29T11:39:39.362Z,10.30
2023-03-29T11:42:14.448Z,10.30
2023-03-29T11:44:43.876Z,9.90
2023-03-29T11:47:23.084Z,10.30
2023-03-29T11:50:36.833Z,10.50
2023-03-29T11:53:20.116Z,9.90
2023-03-29T11:55:48.991Z,9.90
2023-03-29T11:58:32.228Z,9.70
2023-03-29T12:01:04.369Z,9.50
2023-03-29T12:03:50.454Z,9.90
2023-03-29T12:06:37.767Z,9.80
2023-03-29T12:09:09.930Z,10.00
2023-03-29T12:11:42.472Z,10.20
2023-03-29T12:14:19.324Z,10.60
2023-03-29T12:17:02.923Z,10.80
2023-03-29T12:19:31.458Z,10.60
2023-03-29T12:22:00.528Z,10.50
2023-03-29T12:24:30.615Z,10.80
2023-03-29T12:27:10.625Z,11.00
2023-03-29T12:30:15.048Z,11.10
2023-03-29T12:33:07.155Z,11.30
2023-03-29T12:35:40.196Z,11.40
2023-03-29T12:38:19.213Z,11.70
2023-03-29T12:40:48.597Z,11.80
2023-03-29T12:43:39.597Z,11.70
2023-03-29T12:46:15.578Z,11.60
2023-03-29T12:48:44.338Z,11.60
2023-03-29T12:51:22.307Z,11.30
2023-03-29T12:53:55.566Z,11.80
2023-03-29T12:56:34.920Z,11.90
2023-03-29T12:59:10.736Z,12.60
2023-03-29T13:01:41.337Z,12.80
2023-03-29T13:04:16.813Z,12.60
2023-03-29T13:06:50.970Z,12.30
2023-03-29T13:09:47.790Z,11.80
2023-03-29T13:12:42.218Z,12.10
2023-03-29T13:15:14.908Z,11.70
2023-03-29T13:17:50.683Z,11.30
2023-03-29T13:20:46.545Z,11.20
2023-03-29T13:23:43.485Z,11.20
2023-03-29T13:26:23.197Z,11.40
2023-03-29T13:29:13.535Z,11.70
2023-03-29T13:32:12.236Z,12.00
2023-03-29T13:34:48.352Z,12.10
2023-03-29T13:37:17.939Z,12.20
2023-03-29T13:39:52.928Z,12.70
2023-03-29T13:42:25.984Z,13.10
2023-03-29T13:44:53.818Z,13.30
2023-03-29T13:47:33.065Z,13.30
2023-03-29T13:50:05.423Z,13.40
2023-03-29T13:52:43.054Z,13.30
2023-03-29T13:55:24.090Z,13.10
2023-03-29T13:58:13.369Z,13.00
2023-03-29T14:00:47.289Z,12.70
2023-03-29T14:03:16.038Z,12.90
2023-03-29T14:05:48.790Z,12.60
2023-03-29T14:08:27.336Z,12.30
2023-03-29T14:10:55.120Z,12.30
2023-03-29T14:13:24.897Z,12.60
2023-03-29T14:16:06.805Z,12.90
2023-03-29T14:18:38.922Z,12.50
2023-03-29T14:21:06.408Z,12.60
2023-03-29T14:23:43.206Z,12.60
2023-03-29T14:26:19.555Z,12.40
2023-03-29T14:28:51.716Z,12.90
2023-03-29T14:31:26.936Z,13.60
2023-03-29T14:33:56.626Z,13.20
2023-03-29T14:36:25.139Z,13.60
2023-03-29T14:39:05.362Z,12.80
2023-03-29T14:41:35.153Z,12.90
2023-03-29T14:44:03.165Z,12.50
2023-03-29T14:46:30.351Z,12.30
2023-03-29T14:49:00.714Z,12.70
2023-03-29T14:51:31.159Z,12.80
2023-03-29T14:54:04.040Z,12.80
2023-03-29T14:56:32.895Z,12.40
2023-03-29T14:59:04.550Z,12.30
2023-03-29T15:01:32.202Z,12.20
2023-03-29T15:04:06.115Z,12.20
2023-03-29T15:06:37.815Z,11.90
2023-03-29T15:09:06.923Z,11.70
2023-03-29T15:11:34.733Z,11.60
2023-03-29T15:14:05.200Z,11.50
2023-03-29T15:16:33.398Z,11.50
2023-03-29T15:19:01.612Z,11.40
2023-03-29T15:21:36.149Z,11.50
2023-03-29T15:24:04.700Z,11.40
2023-03-29T15:26:37.609Z,11.40
2023-03-29T15:29:23.532Z,11.30
2023-03-29T15:31:58.964Z,11.30
2023-03-29T15:34:28.090Z,11.40
2023-03-29T15:36:57.253Z,11.30
2023-03-29T15:39:26.669Z,11.20
2023-03-29T15:41:56.666Z,11.00
2023-03-29T15:44:33.388Z,11.00
2023-03-29T15:47:00.359Z,11.10
2023-03-29T15:49:27.419Z,11.10
2023-03-29T15:51:54.294Z,11.00
2023-03-29T15:54:22.173Z,10.90
2023-03-29T15:56:55.333Z,10.60
2023-03-29T15:59:22.887Z,10.40
2023-03-29T16:01:50.320Z,10.40
2023-03-29T16:04:19.776Z,10.40
2023-03-29T16:06:49.145Z,10.50
2023-03-29T16:09:16.706Z,10.40
2023-03-29T16:11:45.459Z,10.40
2023-03-29T16:14:24.211Z,10.60
2023-03-29T16:16:52.366Z,10.80
2023-03-29T16:19:19.437Z,10.90
2023-03-29T16:21:46.563Z,10.80
2023-03-29T16:24:19.639Z,10.80
2023-03-29T16:26:48.532Z,10.90
2023-03-29T16:29:17.296Z,11.10
2023-03-29T16:31:48.697Z,11.00
2023-03-29T16:34:19.135Z,11.10
2023-03-29T16:36:47.624Z,11.00
2023-03-29T16:39:15.168Z,10.90
2023-03-29T16:41:42.900Z,10.80
2023-03-29T16:44:16.495Z,10.80
2023-03-29T16:46:44.016Z,10.70
2023-03-29T16:49:17.891Z,10.60
2023-03-29T16:51:48.212Z,10.50
2023-03-29T16:54:17.049Z,10.60
2023-03-29T16:56:44.130Z,10.40
2023-03-29T16:59:11.924Z,10.30
2023-03-29T17:01:40.630Z,10.20
2023-03-29T17:04:08.368Z,10.20
2023-03-29T17:06:35.919Z,10.30
2023-03-29T17:09:03.555Z,10.30
2023-03-29T17:11:30.335Z,10.10
2023-03-29T17:13:57.156Z,10.00
2023-03-29T17:16:24.020Z,10.00
2023-03-29T17:18:50.921Z,9.90
2023-03-29T17:21:17.698Z,9.80
2023-03-29T17:23:44.817Z,9.90
2023-03-29T17:26:11.873Z,9.80
2023-03-29T17:28:38.827Z,9.80
2023-03-29T17:31:07.378Z,9.60
2023-03-29T17:33:35.906Z,9.60
2023-03-29T17:36:03.547Z,9.50
2023-03-29T17:38:34.194Z,9.40
2023-03-29T17:41:02.681Z,9.40
2023-03-29T17:43:29.695Z,9.40
2023-03-29T17:45:56.498Z,9.30
2023-03-29T17:48:24.083Z,9.20
2023-03-29T17:50:51.382Z,9.20
2023-03-29T17:53:18.243Z,9.10
2023-03-29T17:55:44.997Z,9.00
2023-03-29T17:58:11.835Z,8.90
2023-03-29T18:00:38.698Z,8.90
2023-03-29T18:03:05.807Z,8.90
2023-03-29T18:05:33.511Z,8.80
2023-03-29T18:08:00.313Z,8.80
2023-03-29T18:10:27.232Z,8.80
2023-03-29T18:12:54.303Z,8.70
2023-03-29T18:15:21.241Z,8.60
2023-03-29T18:17:48.047Z,8.60
2023-03-29T18:20:16.129Z,8.50
2023-03-29T18:22:44.432Z,8.40
2023-03-29T18:25:11.312Z,8.30
2023-03-29T18:27:39.361Z,8.30
2023-03-29T18:30:08.673Z,8.20
2023-03-29T18:32:36.557Z,8.20
2023-03-29T18:35:03.725Z,8.20
2023-03-29T18:37:30.829Z,8.10
2023-03-29T18:39:57.558Z,8.10
2023-03-29T18:42:24.420Z,8.00
2023-03-29T18:44:51.300Z,7.90
2023-03-29T18:47:21.194Z,7.90
2023-03-29T18:49:47.981Z,7.80
2023-03-29T18:52:14.761Z,7.80
2023-03-29T18:54:41.767Z,7.80
2023-03-29T18:57:08.760Z,7.80
2023-03-29T18:59:38.375Z,7.80
2023-03-29T19:02:05.291Z,7.80
2023-03-29T19:04:32.061Z,7.90
2023-03-29T19:07:01.252Z,7.80
2023-03-29T19:09:28.225Z,7.80
2023-03-29T19:11:55.280Z,7.80
2023-03-29T19:14:25.092Z,7.80
2023-03-29T19:16:52.725Z,7.70
2023-03-29T19:19:21.946Z,7.80
2023-03-29T19:21:49.418Z,7.80
2023-03-29T19:24:17.067Z,7.70
2023-03-29T19:26:44.652Z,7.70
2023-03-29T19:29:11.728Z,7.70
2023-03-29T19:31:38.983Z,7.70
2023-03-29T19:34:07.763Z,7.60
2023-03-29T19:36:34.517Z,7.50
2023-03-29T19:39:01.657Z,7.50
2023-03-29T19:41:28.765Z,7.50
2023-03-29T19:43:55.658Z,7.50
2023-03-29T19:46:22.955Z,7.60
2023-03-29T19:48:51.684Z,7.60
2023-03-29T19:51:18.493Z,7.60
2023-03-29T19:53:45.361Z,7.70
2023-03-29T19:56:14.289Z,7.60
2023-03-29T19:58:41.464Z,7.70
2023-03-29T20:01:08.394Z,7.80
2023-03-29T20:03:36.006Z,7.80
2023-03-29T20:06:03.094Z,7.80
2023-03-29T20:08:29.891Z,7.90
2023-03-29T20:11:02.396Z,7.90
2023-03-29T20:13:38.240Z,7.90
2023-03-29T20:16:16.779Z,7.90
2023-03-29T20:18:47.147Z,7.90
2023-03-29T20:21:16.362Z,8.00
2023-03-29T20:23:44.107Z,8.10
2023-03-29T20:26:10.953Z,8.10
2023-03-29T20:28:37.878Z,8.20
2023-03-29T20:31:06.743Z,8.20
2023-03-29T20:33:33.838Z,8.20
2023-03-29T20:36:00.846Z,8.30
2023-03-29T20:38:27.912Z,8.30
2023-03-29T20:40:55.337Z,8.30
2023-03-29T20:43:22.583Z,8.30
2023-03-29T20:45:52.628Z,8.20
2023-03-29T20:48:23.079Z,8.20
2023-03-29T20:50:50.648Z,8.30
2023-03-29T20:53:18.349Z,8.30
2023-03-29T20:55:45.355Z,8.30
2023-03-29T20:58:12.184Z,8.30
2023-03-29T21:00:40.351Z,8.40
2023-03-29T21:03:08.339Z,8.30
2023-03-29T21:05:35.770Z,8.30
2023-03-29T21:08:04.269Z,8.40
2023-03-29T21:10:31.604Z,8.40
2023-03-29T21:13:00.256Z,8.40
2023-03-29T21:15:29.371Z,8.40
2023-03-29T21:17:56.809Z,8.40
2023-03-29T21:20:24.178Z,8.40
2023-03-29T21:22:51.569Z,8.40
2023-03-29T21:25:19.005Z,8.40
2023-03-29T21:27:46.035Z,8.40
2023-03-29T21:30:13.220Z,8.30
2023-03-29T21:32:40.432Z,8.30
2023-03-29T21:35:08.020Z,8.40
2023-03-29T21:37:34.838Z,8.30
2023-03-29T21:40:05.630Z,8.30
2023-03-29T21:42:33.358Z,8.30
2023-03-29T21:45:00.403Z,8.30
2023-03-29T21:47:27.370Z,8.30
2023-03-29T21:49:54.383Z,8.30
2023-03-29T21:52:21.583Z,8.30
2023-03-29T21:54:48.340Z,8.30
2023-03-29T21:57:15.236Z,8.30
2023-03-29T21:59:42.096Z,8.30
2023-03-29T22:02:08.924Z,8.30
2023-03-29T22:04:37.481Z,8.30
2023-03-29T22:07:05.998Z,8.40
2023-03-29T22:09:34.919Z,8.40
2023-03-29T22:12:02.512Z,8.40
2023-03-29T22:14:31.625Z,8.40
2023-03-29T22:16:58.443Z,8.40
2023-03-29T22:19:26.236Z,8.40
2023-03-29T22:21:53.031Z,8.40
2023-03-29T22:24:19.753Z,8.40
2023-03-29T22:26:48.002Z,8.40
2023-03-29T22:29:14.804Z,8.40
2023-03-29T22:31:41.558Z,8.30
2023-03-29T22:34:08.272Z,8.30
2023-03-29T22:36:36.755Z,8.20
2023-03-29T22:39:04.138Z,8.20
2023-03-29T22:41:30.876Z,8.20
2023-03-29T22:44:00.875Z,8.20
2023-03-29T22:46:28.082Z,8.20
2023-03-29T22:48:54.973Z,8.10
2023-03-29T22:51:21.742Z,8.10
2023-03-29T22:53:48.629Z,8.10
2023-03-29T22:56:16.477Z,8.10
2023-03-29T22:58:44.290Z,8.10
2023-03-29T23:01:11.733Z,8.00
2023-03-29T23:03:38.750Z,7.90
2023-03-29T23:06:05.935Z,7.90
2023-03-29T23:08:33.610Z,7.90
2023-03-29T23:11:01.669Z,7.90
2023-03-29T23:13:29.576Z,7.90
2023-03-29T23:15:59.218Z,7.90
2023-03-29T23:18:28.564Z,7.90
2023-03-29T23:20:57.478Z,7.90
2023-03-29T23:23:25.587Z,7.90
2023-03-29T23:25:53.228Z,7.90
2023-03-29T23:28:24.420Z,7.90
2023-03-29T23:30:55.192Z,7.80
2023-03-29T23:33:22.408Z,7.80
2023-03-29T23:35:49.248Z,7.80
2023-03-29T23:38:16.002Z,7.80
2023-03-29T23:40:42.785Z,7.80
2023-03-29T23:43:11.044Z,7.80
2023-03-29T23:45:37.804Z,7.70
2023-03-29T23:48:04.648Z,7.60
2023-03-29T23:50:31.628Z,7.60
2023-03-29T23:52:58.407Z,7.60
2023-03-29T23:55:25.206Z,7.60
2023-03-29T23:57:52.226Z,7.60
